Time;durP1;ratioP1;P1;durP2;ratioP2;P2;SDS_P1;SDS_P2;PMS_P1;PMS_P2;Temp;Humidity;BMP_temperature;BMP_pressure;BME280_temperature;BME280_humidity;BME280_pressure;Samples;Min_cycle;Max_cycle;Signal;HPM_P1;HPM_P2
2023/01/20 00:00:42;;;;;;;2.53;1.20;;;;;;;;;;21013699;28;20404;-63
2023/01/20 00:10:45;;;;;;;1.80;1.10;;;;;;;;;;21011928;28;20048;-65
2023/01/20 00:20:47;;;;;;;2.75;1.00;;;;;;;;;;21010044;28;20152;-64
2023/01/20 00:30:49;;;;;;;2.10;1.23;;;;;;;;;;21009459;28;20048;-65
2023/01/20 00:40:54;;;;;;;16.00;7.95;;;;;;;;;;21009924;28;20408;-68
2023/01/20 00:50:57;;;;;;;3.97;2.15;;;;;;;;;;21009597;28;20056;-64
2023/01/20 01:01:00;;;;;;;4.45;1.20;;;;;;;;;;21005693;28;20124;-61
2023/01/20 01:11:03;;;;;;;3.03;1.48;;;;;;;;;;21006185;28;20053;-61
2023/01/20 01:21:06;;;;;;;1.90;1.02;;;;;;;;;;21005613;28;20546;-59
2023/01/20 01:31:10;;;;;;;5.43;2.08;;;;;;;;;;21006354;28;20137;-61
2023/01/20 01:41:13;;;;;;;1.85;0.93;;;;;;;;;;21004445;28;20052;-60
2023/01/20 01:51:25;;;;;;;2.08;0.70;;;;;;;;;;21002835;28;20052;-63
2023/01/20 02:01:28;;;;;;;1.45;0.77;;;;;;;;;;21002944;28;20099;-62
2023/01/20 02:11:32;;;;;;;1.65;0.75;;;;;;;;;;21001254;28;20049;-64
2023/01/20 02:21:53;;;;;;;0.82;0.57;;;;;;;;;;20999642;28;20048;-64
2023/01/20 02:32:26;;;;;;;1.58;0.88;;;;;;;;;;21000091;28;20052;-64
2023/01/20 02:42:38;;;;;;;1.15;0.80;;;;;;;;;;20998744;28;20052;-63
2023/01/20 02:52:45;;;;;;;1.50;0.60;;;;;;;;;;20998791;28;20059;-63
2023/01/20 03:02:48;;;;;;;1.58;0.70;;;;;;;;;;20996810;28;20050;-65
2023/01/20 03:13:23;;;;;;;2.92;0.70;;;;;;;;;;20996573;28;20408;-64
2023/01/20 03:23:27;;;;;;;1.15;0.73;;;;;;;;;;20659719;28;20104;-65
2023/01/20 03:33:33;;;;;;;1.10;0.63;;;;;;;;;;20659359;28;20065;-66
2023/01/20 03:43:40;;;;;;;0.90;0.50;;;;;;;;;;20658482;28;20054;-66
2023/01/20 03:53:54;;;;;;;1.63;0.60;;;;;;;;;;20736081;28;20098;-64
2023/01/20 04:03:58;;;;;;;1.45;0.75;;;;;;;;;;20994378;28;20056;-64
2023/01/20 04:14:02;;;;;;;1.02;0.52;;;;;;;;;;20995205;28;20448;-65
2023/01/20 04:24:14;;;;;;;0.40;0.38;;;;;;;;;;20993817;28;20049;-63
2023/01/20 04:34:17;;;;;;;0.47;0.40;;;;;;;;;;20998534;28;20057;-64
2023/01/20 04:44:20;;;;;;;0.60;0.40;;;;;;;;;;21009226;28;20084;-60
2023/01/20 04:54:22;;;;;;;0.80;0.50;;;;;;;;;;21008556;28;20127;-60
2023/01/20 05:04:24;;;;;;;2.38;0.80;;;;;;;;;;21006862;28;20496;-64
2023/01/20 05:14:26;;;;;;;1.85;0.43;;;;;;;;;;21005232;28;20045;-65
2023/01/20 05:24:29;;;;;;;0.70;0.50;;;;;;;;;;21005847;28;20102;-63
2023/01/20 05:34:32;;;;;;;1.92;0.70;;;;;;;;;;21004581;28;20114;-64
2023/01/20 05:44:35;;;;;;;1.65;0.73;;;;;;;;;;21001874;28;20049;-63
2023/01/20 05:54:37;;;;;;;0.40;0.40;;;;;;;;;;21002924;28;20052;-62
2023/01/20 06:04:39;;;;;;;0.50;0.40;;;;;;;;;;21002749;28;20048;-62
2023/01/20 06:14:41;;;;;;;1.20;0.63;;;;;;;;;;21001982;28;20044;-62
2023/01/20 06:24:43;;;;;;;1.02;0.63;;;;;;;;;;21000308;28;20044;-61
2023/01/20 06:34:45;;;;;;;1.45;0.63;;;;;;;;;;20997476;28;20556;-65
2023/01/20 06:44:47;;;;;;;0.80;0.52;;;;;;;;;;20998765;28;20044;-64
2023/01/20 06:54:49;;;;;;;0.75;0.70;;;;;;;;;;20998646;28;20052;-65
2023/01/20 07:05:08;;;;;;;1.67;0.93;;;;;;;;;;20661476;28;20051;-63
2023/01/20 07:15:10;;;;;;;2.10;1.15;;;;;;;;;;20660398;28;20055;-64
2023/01/20 07:25:12;;;;;;;1.60;0.88;;;;;;;;;;20659140;28;20055;-62
2023/01/20 07:35:14;;;;;;;1.27;0.82;;;;;;;;;;20718775;28;20082;-64
2023/01/20 07:45:16;;;;;;;2.10;1.05;;;;;;;;;;20995298;28;20063;-61
2023/01/20 07:55:18;;;;;;;2.90;1.50;;;;;;;;;;20994827;28;20083;-63
2023/01/20 08:05:21;;;;;;;4.65;1.40;;;;;;;;;;20994541;28;20083;-60
2023/01/20 08:15:23;;;;;;;4.07;2.20;;;;;;;;;;21009060;28;20083;-64
2023/01/20 08:25:25;;;;;;;5.70;1.75;;;;;;;;;;21010037;28;20056;-64
2023/01/20 08:35:28;;;;;;;5.72;1.70;;;;;;;;;;21009355;28;20056;-64
2023/01/20 08:45:30;;;;;;;8.60;3.90;;;;;;;;;;21008817;28;20060;-63
2023/01/20 08:55:32;;;;;;;6.90;4.18;;;;;;;;;;21007683;28;20543;-60
2023/01/20 09:05:35;;;;;;;11.52;7.40;;;;;;;;;;21007173;28;20082;-62
2023/01/20 09:15:37;;;;;;;10.35;5.43;;;;;;;;;;21004536;28;20071;-63
2023/01/20 09:25:39;;;;;;;8.55;3.65;;;;;;;;;;21002239;28;20059;-59
2023/01/20 09:35:41;;;;;;;9.63;4.20;;;;;;;;;;21003258;28;20056;-65
2023/01/20 09:45:50;;;;;;;9.40;3.40;;;;;;;;;;21002758;28;20053;-65
2023/01/20 09:56:00;;;;;;;8.93;3.60;;;;;;;;;;20983579;28;20055;-63
2023/01/20 10:06:07;;;;;;;5.78;3.05;;;;;;;;;;21001373;28;20056;-64
2023/01/20 10:16:11;;;;;;;12.13;3.45;;;;;;;;;;20999090;28;20080;-64
2023/01/20 10:26:20;;;;;;;8.70;3.00;;;;;;;;;;20998493;28;20092;-64
2023/01/20 10:36:28;;;;;;;4.82;2.50;;;;;;;;;;20996402;28;20052;-62
2023/01/20 10:46:43;;;;;;;3.20;1.98;;;;;;;;;;20996859;28;20052;-66
2023/01/20 10:56:52;;;;;;;4.38;1.60;;;;;;;;;;20998198;28;20135;-67
2023/01/20 11:06:57;;;;;;;4.18;1.75;;;;;;;;;;20996269;28;20052;-63
2023/01/20 11:17:03;;;;;;;4.23;1.53;;;;;;;;;;20995929;28;20049;-62
2023/01/20 11:27:05;;;;;;;4.72;1.35;;;;;;;;;;20994964;28;20052;-63
2023/01/20 11:37:07;;;;;;;2.13;1.30;;;;;;;;;;20995339;28;20044;-66
2023/01/20 11:47:25;;;;;;;1.70;0.82;;;;;;;;;;21014416;28;20408;-66
2023/01/20 11:57:26;;;;;;;4.00;0.90;;;;;;;;;;21022856;28;20059;-64
2023/01/20 12:07:31;;;;;;;2.58;1.50;;;;;;;;;;21022330;28;20048;-67
2023/01/20 12:17:41;;;;;;;2.40;1.10;;;;;;;;;;21021328;28;20558;-69
2023/01/20 12:27:46;;;;;;;1.95;0.90;;;;;;;;;;21020028;28;20044;-63
2023/01/20 12:37:55;;;;;;;1.45;0.90;;;;;;;;;;21020341;28;20489;-70
2023/01/20 12:48:03;;;;;;;1.95;0.90;;;;;;;;;;21019884;28;20056;-66
2023/01/20 12:58:08;;;;;;;2.60;0.90;;;;;;;;;;21009724;28;20048;-65
2023/01/20 13:08:13;;;;;;;1.17;0.70;;;;;;;;;;21006104;28;20056;-69
2023/01/20 13:18:15;;;;;;;1.83;0.98;;;;;;;;;;21005471;28;20048;-70
2023/01/20 13:28:27;;;;;;;1.65;0.80;;;;;;;;;;21003695;28;20044;-67
2023/01/20 13:38:34;;;;;;;1.70;0.95;;;;;;;;;;21003565;28;20055;-71
2023/01/20 13:48:42;;;;;;;1.55;0.70;;;13.40;50.40;;;;;;21002956;28;20082;-69
2023/01/20 13:58:44;;;;;;;1.58;0.95;;;13.50;50.70;;;;;;21001889;28;20063;-68
2023/01/20 14:08:50;;;;;;;3.40;1.77;;;13.40;50.10;;;;;;21001707;28;20408;-68
2023/01/20 14:19:13;;;;;;;4.40;1.10;;;13.40;49.90;;;;;;21000482;28;20367;-69
2023/01/20 14:29:19;;;;;;;3.88;1.75;;;13.30;49.50;;;;;;20985920;28;20049;-70
2023/01/20 14:39:28;;;;;;;1.08;0.70;;;13.20;48.70;;;;;;20998602;28;20135;-69
2023/01/20 14:49:34;;;;;;;3.72;1.20;;;13.30;48.20;;;;;;20998488;28;20416;-70
2023/01/20 14:59:36;;;;;;;8.10;4.15;;;;;;;;;;20996894;28;20094;-69
2023/01/20 15:09:41;;;;;;;7.72;4.10;;;;;;;;;;20997024;28;20113;-70
2023/01/20 15:19:45;;;;;;;3.67;2.42;;;;;;;;;;20994834;28;20075;-69
2023/01/20 15:29:59;;;;;;;2.38;1.17;;;;;;;;;;20995497;28;20080;-68
2023/01/20 15:40:01;;;;;;;7.47;3.87;;;;;;;;;;20995528;28;20500;-72
2023/01/20 15:50:03;;;;;;;2.53;1.08;;;;;;;;;;20996299;28;20049;-71
2023/01/20 16:00:06;;;;;;;2.50;1.52;;;;;;;;;;20996027;28;20056;-69
2023/01/20 16:10:10;;;;;;;2.40;1.40;;;;;;;;;;20995434;28;20045;-68
2023/01/20 16:20:17;;;;;;;6.17;3.17;;;;;;;;;;20994378;28;20106;-63
2023/01/20 16:30:20;;;;;;;2.60;0.98;;;;;;;;;;20997928;28;20062;-66
2023/01/20 16:40:23;;;;;;;2.35;1.20;;;;;;;;;;20995838;28;20120;-64
2023/01/20 16:50:27;;;;;;;10.23;4.47;;;;;;;;;;20976181;28;20087;-60
2023/01/20 17:00:29;;;;;;;4.50;2.35;;;;;;;;;;20933749;28;20044;-63
2023/01/20 17:10:31;;;;;;;2.65;1.50;;;;;;;;;;21005593;28;20086;-62
2023/01/20 17:20:33;;;;;;;3.70;1.67;;;;;;;;;;20990087;28;20056;-71
2023/01/20 17:30:37;;;;;;;2.70;1.45;;;;;;;;;;20978173;28;20493;-67
2023/01/20 17:40:39;;;;;;;2.90;1.58;;;;;;;;;;20940545;28;20044;-63
2023/01/20 17:50:41;;;;;;;3.45;1.83;;;;;;;;;;20950357;28;20500;-69
2023/01/20 18:00:43;;;;;;;9.00;4.38;;;;;;;;;;21000001;28;20075;-64
2023/01/20 18:10:45;;;;;;;6.00;2.35;;;;;;;;;;20999143;28;20447;-68
2023/01/20 18:20:47;;;;;;;11.77;5.72;;;;;;;;;;20998480;28;20071;-63
2023/01/20 18:30:49;;;;;;;4.50;2.60;;;;;;;;;;20993017;28;20656;-69
2023/01/20 18:40:51;;;;;;;5.60;2.63;;;;;;;;;;20992833;28;20091;-64
2023/01/20 18:50:58;;;;;;;3.58;1.88;;;;;;;;;;20993678;28;20047;-69
2023/01/20 19:01:04;;;;;;;3.25;2.00;;;;;;;;;;20995812;28;20080;-65
2023/01/20 19:11:08;;;;;;;2.78;1.75;;;;;;;;;;20976446;28;20379;-71
2023/01/20 19:21:11;;;;;;;9.80;6.65;;;;;;;;;;20987060;28;20086;-68
2023/01/20 19:31:17;;;;;;;12.65;7.15;;;;;;;;;;20987970;28;20040;-66
2023/01/20 19:41:21;;;;;;;6.45;3.67;;;;;;;;;;20957949;28;20049;-63
2023/01/20 19:51:24;;;;;;;5.20;2.80;;;;;;;;;;20987692;28;20055;-63
2023/01/20 20:01:27;;;;;;;4.50;2.90;;;;;;;;;;20994770;28;20049;-62
2023/01/20 20:11:30;;;;;;;7.85;4.72;;;;;;;;;;21011198;28;20416;-63
2023/01/20 20:21:33;;;;;;;5.30;2.90;;;;;;;;;;21009137;28;20484;-62
2023/01/20 20:31:36;;;;;;;6.15;2.95;;;;;;;;;;21008629;28;20094;-63
2023/01/20 20:41:38;;;;;;;8.05;5.22;;;;;;;;;;21008225;28;20162;-63
2023/01/20 20:51:39;;;;;;;5.93;3.90;;;;;;;;;;21006979;28;20048;-63
2023/01/20 21:01:41;;;;;;;8.00;3.95;;;;;;;;;;20988443;28;20049;-63
2023/01/20 21:11:43;;;;;;;7.00;4.50;;;;;;;;;;21006420;28;20110;-62
2023/01/20 21:21:45;;;;;;;9.40;4.55;;;;;;;;;;21004119;28;20504;-63
2023/01/20 21:31:49;;;;;;;13.25;7.10;;;;;;;;;;21004585;28;20105;-63
2023/01/20 21:41:50;;;;;;;8.75;4.50;;;;;;;;;;21003846;28;20420;-63
2023/01/20 22:02:14;;;;;;;13.13;6.05;;;;;;;;;;21002185;28;20095;-62
2023/01/20 22:12:16;;;;;;;6.78;4.50;;;;;;;;;;21002445;28;20109;-64
2023/01/20 22:22:18;;;;;;;9.63;5.00;;;;;;;;;;21000097;28;20052;-62
2023/01/20 22:32:20;;;;;;;10.70;7.25;;;;;;;;;;20998651;28;20543;-64
2023/01/20 22:42:22;;;;;;;12.20;7.35;;;;;;;;;;20998842;28;20060;-63
2023/01/20 22:52:24;;;;;;;18.48;9.93;;;;;;;;;;20998160;28;20504;-62
2023/01/20 23:02:26;;;;;;;10.90;6.50;;;;;;;;;;20998323;28;20135;-63
2023/01/20 23:12:28;;;;;;;7.63;3.95;;;;;;;;;;20996816;28;20098;-62
2023/01/20 23:22:30;;;;;;;5.65;3.35;;;;;;;;;;20996324;28;20052;-62
2023/01/20 23:32:32;;;;;;;5.72;3.33;;;;;;;;;;20995114;28;20048;-62
2023/01/20 23:42:34;;;;;;;6.28;3.90;;;;;;;;;;20994236;28;20420;-63
2023/01/20 23:52:36;;;;;;;5.22;3.50;;;;;;;;;;20995117;28;20428;-64
